Time;durP1;ratioP1;P1;durP2;ratioP2;P2;SDS_P1;SDS_P2;PMS_P1;PMS_P2;Temp;Humidity;BMP_temperature;BMP_pressure;BME280_temperature;BME280_humidity;BME280_pressure;Samples;Min_cycle;Max_cycle;Signal;HPM_P1;HPM_P2
2023/06/05 00:00:42;;;;;;;3.40;3.10;;;17.10;99.90;;;;;;5139628;27;20175;-46
2023/06/05 00:03:08;;;;;;;3.77;3.40;;;17.10;99.90;;;;;;5139730;27;20214;-52
2023/06/05 00:05:33;;;;;;;3.43;3.13;;;17.10;99.90;;;;;;5139015;27;20187;-47
2023/06/05 00:07:59;;;;;;;4.03;3.37;;;17.00;99.90;;;;;;5139725;27;20480;-48
2023/06/05 00:10:25;;;;;;;3.40;3.10;;;17.00;99.90;;;;;;5139532;27;20233;-48
2023/06/05 00:12:50;;;;;;;3.43;2.70;;;16.90;99.90;;;;;;5139968;27;20189;-50
2023/06/05 00:15:16;;;;;;;5.03;3.20;;;16.90;99.90;;;;;;5139419;27;20589;-47
2023/06/05 00:17:41;;;;;;;3.43;2.83;;;16.90;99.90;;;;;;5138882;27;20191;-47
2023/06/05 00:20:09;;;;;;;4.80;3.50;;;16.90;99.90;;;;;;5138459;27;20588;-48
2023/06/05 00:22:35;;;;;;;4.10;3.33;;;16.80;99.90;;;;;;5138607;27;20460;-47
2023/06/05 00:25:01;;;;;;;3.60;3.20;;;16.80;1.00;;;;;;5137769;27;20588;-47
2023/06/05 00:27:27;;;;;;;3.20;2.70;;;16.80;99.90;;;;;;5137707;27;20504;-47
2023/06/05 00:29:53;;;;;;;3.53;2.70;;;16.80;99.90;;;;;;5138221;27;21010;-50
2023/06/05 00:32:19;;;;;;;3.77;3.07;;;16.80;99.90;;;;;;5138920;27;20421;-49
2023/06/05 00:34:45;;;;;;;3.80;3.20;;;16.80;99.90;;;;;;5139208;27;20210;-51
2023/06/05 00:37:13;;;;;;;3.23;2.93;;;16.80;99.90;;;;;;5139319;27;20426;-47
2023/06/05 00:39:39;;;;;;;3.63;3.10;;;16.80;99.90;;;;;;5139184;27;20596;-49
2023/06/05 00:42:05;;;;;;;3.53;3.00;;;16.70;99.90;;;;;;5133842;27;20534;-50
2023/06/05 00:44:30;;;;;;;3.70;3.30;;;16.70;99.90;;;;;;5099610;28;20773;-51
2023/06/05 00:46:57;;;;;;;4.20;3.03;;;16.70;99.90;;;;;;5118360;28;20445;-47
2023/06/05 00:49:22;;;;;;;3.30;2.80;;;16.60;99.90;;;;;;5118119;28;20207;-47
2023/06/05 00:51:48;;;;;;;3.53;2.67;;;16.60;99.90;;;;;;5117331;28;20868;-49
2023/06/05 00:54:14;;;;;;;3.27;2.97;;;16.60;99.90;;;;;;5117364;28;20176;-47
2023/06/05 00:56:43;;;;;;;4.13;3.07;;;16.60;99.90;;;;;;5117486;28;20678;-50
2023/06/05 00:59:09;;;;;;;3.23;2.70;;;16.50;99.90;;;;;;5099003;28;20518;-50
2023/06/05 01:01:36;;;;;;;5.73;3.03;;;16.50;99.90;;;;;;5117462;28;20405;-47
2023/06/05 01:04:02;;;;;;;3.30;3.00;;;16.50;99.90;;;;;;5117372;28;20194;-47
2023/06/05 01:06:30;;;;;;;3.40;3.10;;;16.40;99.90;;;;;;5117569;28;20660;-49
2023/06/05 01:08:56;;;;;;;4.27;2.97;;;16.40;99.90;;;;;;5100422;28;20848;-48
2023/06/05 01:11:26;;;;;;;3.03;2.77;;;16.40;99.90;;;;;;5118226;28;20432;-48
2023/06/05 01:14:02;;;;;;;4.00;3.07;;;16.40;99.90;;;;;;5118031;28;20434;-47
2023/06/05 01:16:30;;;;;;;3.90;2.93;;;16.40;99.90;;;;;;5118463;28;20858;-49
2023/06/05 01:19:02;;;;;;;3.17;2.87;;;16.30;99.90;;;;;;5116691;28;20421;-49
2023/06/05 01:21:28;;;;;;;3.60;2.87;;;16.30;99.90;;;;;;5117928;28;20433;-50
2023/06/05 01:23:57;;;;;;;3.40;3.10;;;16.20;99.90;;;;;;5117960;28;20440;-47
2023/06/05 01:26:28;;;;;;;4.53;3.47;;;16.20;99.90;;;;;;5117895;28;20511;-48
2023/06/05 01:28:54;;;;;;;4.37;3.30;;;16.20;99.90;;;;;;5099820;28;20504;-49
2023/06/05 01:31:21;;;;;;;3.97;3.23;;;16.20;99.90;;;;;;5117822;28;20437;-48
2023/06/05 01:33:51;;;;;;;3.77;2.70;;;16.10;99.90;;;;;;5098488;28;20429;-48
2023/06/05 01:36:18;;;;;;;3.43;2.73;;;16.10;99.90;;;;;;5099177;28;20918;-47
2023/06/05 01:38:44;;;;;;;3.73;3.03;;;16.10;99.90;;;;;;5098297;28;20430;-47
2023/06/05 01:41:11;;;;;;;3.20;2.90;;;16.10;99.90;;;;;;5097626;28;20437;-48
2023/06/05 01:43:37;;;;;;;4.43;2.90;;;16.10;99.90;;;;;;5115896;27;20503;-50
2023/06/05 01:46:04;;;;;;;4.53;3.03;;;16.00;99.90;;;;;;5136471;27;20433;-47
2023/06/05 01:48:30;;;;;;;3.67;3.00;;;16.00;99.90;;;;;;5136534;27;20448;-50
2023/06/05 01:51:02;;;;;;;4.33;3.83;;;15.90;99.90;;;;;;5101486;27;20585;-48
2023/06/05 01:53:28;;;;;;;3.47;2.80;;;15.90;99.90;;;;;;5138240;27;20416;-47
2023/06/05 01:55:58;;;;;;;4.67;4.27;;;15.90;99.90;;;;;;5138263;27;20416;-49
2023/06/05 01:58:24;;;;;;;4.77;3.03;;;15.90;99.90;;;;;;5137914;27;20739;-48
2023/06/05 02:00:52;;;;;;;4.53;3.60;;;15.90;99.90;;;;;;5137689;27;20409;-47
2023/06/05 02:03:18;;;;;;;4.67;3.00;;;15.80;99.90;;;;;;5137405;27;20417;-47
2023/06/05 02:05:44;;;;;;;3.20;2.83;;;15.80;99.90;;;;;;5138101;27;20421;-49
2023/06/05 02:08:10;;;;;;;4.30;3.43;;;15.80;99.90;;;;;;5136773;27;20893;-48
2023/06/05 02:10:40;;;;;;;3.50;2.83;;;15.80;1.00;;;;;;5136233;27;20622;-49
2023/06/05 02:13:06;;;;;;;3.20;2.90;;;15.80;1.00;;;;;;5119533;28;20421;-48
2023/06/05 02:15:33;;;;;;;3.80;2.87;;;15.80;1.00;;;;;;5136527;27;20423;-46
2023/06/05 02:18:00;;;;;;;3.10;2.80;;;15.80;1.00;;;;;;5137271;27;20477;-49
2023/06/05 02:20:26;;;;;;;5.40;3.20;;;15.80;1.00;;;;;;5137717;27;20432;-48
2023/06/05 02:22:52;;;;;;;4.43;3.70;;;15.80;1.00;;;;;;5136932;27;20679;-47
2023/06/05 02:25:18;;;;;;;3.50;2.83;;;15.80;1.00;;;;;;5136693;27;20409;-49
2023/06/05 02:27:44;;;;;;;5.20;3.17;;;15.70;1.00;;;;;;5137168;27;20190;-50
2023/06/05 02:30:11;;;;;;;3.87;3.23;;;15.70;1.00;;;;;;5136152;27;20547;-49
2023/06/05 02:32:40;;;;;;;3.70;3.30;;;15.70;1.00;;;;;;5137586;28;20501;-47
2023/06/05 02:35:06;;;;;;;3.80;2.90;;;15.70;1.00;;;;;;5136881;28;20497;-50
2023/06/05 02:37:36;;;;;;;4.03;3.63;;;15.60;1.00;;;;;;5137106;28;20404;-50
2023/06/05 02:40:03;;;;;;;3.80;3.20;;;15.60;1.00;;;;;;5119990;28;20444;-48
2023/06/05 02:42:29;;;;;;;3.70;3.23;;;15.60;1.00;;;;;;5127403;28;20579;-49
2023/06/05 02:44:54;;;;;;;4.90;3.60;;;15.60;1.00;;;;;;5115829;28;20859;-46
2023/06/05 02:47:20;;;;;;;3.33;3.03;;;15.60;1.00;;;;;;5116826;28;20430;-49
2023/06/05 02:49:45;;;;;;;3.37;3.07;;;15.60;1.00;;;;;;5116476;28;20641;-50
2023/06/05 02:52:11;;;;;;;4.50;2.90;;;15.50;1.00;;;;;;5115709;28;20335;-51
2023/06/05 02:54:38;;;;;;;3.33;2.70;;;15.50;1.00;;;;;;5114870;28;20442;-52
2023/06/05 02:57:06;;;;;;;5.00;3.17;;;15.50;1.00;;;;;;5114775;28;20411;-49
2023/06/05 02:59:32;;;;;;;4.80;3.20;;;15.50;1.00;;;;;;5114178;28;20472;-49
2023/06/05 03:01:58;;;;;;;5.67;3.67;;;15.50;1.00;;;;;;5114795;28;20448;-48
2023/06/05 03:04:24;;;;;;;6.03;3.87;;;15.50;1.00;;;;;;5114235;28;20188;-48
2023/06/05 03:06:50;;;;;;;4.80;3.87;;;15.50;1.00;;;;;;5114066;28;20417;-48
2023/06/05 03:09:16;;;;;;;5.00;3.73;;;15.50;1.00;;;;;;5115163;28;20469;-47
2023/06/05 03:11:42;;;;;;;3.63;3.30;;;15.40;1.00;;;;;;5115930;28;20539;-47
2023/06/05 03:14:08;;;;;;;5.73;4.23;;;15.40;1.00;;;;;;5116188;28;20520;-46
2023/06/05 03:16:41;;;;;;;4.40;3.97;;;15.40;1.00;;;;;;5115434;28;20414;-46
2023/06/05 03:19:08;;;;;;;6.60;4.50;;;15.30;1.00;;;;;;5116060;28;20401;-48
2023/06/05 03:21:39;;;;;;;6.37;4.80;;;15.30;1.00;;;;;;5115000;28;20422;-48
2023/06/05 03:24:06;;;;;;;6.10;4.93;;;15.30;1.00;;;;;;5113766;28;20830;-48
2023/06/05 03:26:32;;;;;;;7.80;5.00;;;15.30;1.00;;;;;;5114108;28;20529;-50
2023/06/05 03:28:58;;;;;;;9.80;5.07;;;15.20;1.00;;;;;;5115158;28;20816;-47
2023/06/05 03:31:24;;;;;;;6.20;4.90;;;15.20;1.00;;;;;;5115835;28;20431;-50
2023/06/05 03:33:51;;;;;;;12.50;6.70;;;15.20;1.00;;;;;;5081196;28;20417;-49
2023/06/05 03:36:17;;;;;;;7.80;5.57;;;15.20;1.00;;;;;;5115835;28;20683;-47
2023/06/05 03:38:43;;;;;;;7.20;5.70;;;15.20;1.00;;;;;;5097397;28;20432;-47
2023/06/05 03:41:09;;;;;;;7.57;5.57;;;15.20;1.00;;;;;;5116780;28;20508;-49
2023/06/05 03:43:36;;;;;;;6.20;4.60;;;15.20;1.00;;;;;;5119005;28;20480;-49
2023/06/05 03:46:02;;;;;;;6.77;4.87;;;15.20;1.00;;;;;;5119124;28;20515;-45
2023/06/05 03:48:27;;;;;;;4.87;4.30;;;15.20;1.00;;;;;;5118813;28;20829;-47
2023/06/05 03:50:53;;;;;;;4.80;4.30;;;15.20;1.00;;;;;;5119666;28;20290;-49
2023/06/05 03:53:19;;;;;;;5.80;3.83;;;15.20;1.00;;;;;;5119647;28;20219;-48
2023/06/05 03:55:46;;;;;;;5.87;4.30;;;15.20;1.00;;;;;;5118307;28;20569;-46
2023/06/05 03:58:16;;;;;;;4.00;3.47;;;15.20;1.00;;;;;;5117935;28;20405;-47
2023/06/05 04:00:42;;;;;;;4.47;4.03;;;15.20;1.00;;;;;;5113539;28;20441;-47
2023/06/05 04:03:09;;;;;;;4.87;4.37;;;15.20;1.00;;;;;;5102949;28;20429;-47
2023/06/05 04:05:38;;;;;;;6.00;4.00;;;15.20;1.00;;;;;;5098146;28;21046;-48
2023/06/05 04:08:08;;;;;;;7.70;4.67;;;15.20;1.00;;;;;;5098301;28;20437;-47
2023/06/05 04:10:33;;;;;;;6.37;4.50;;;15.20;1.00;;;;;;5109293;28;20458;-48
2023/06/05 04:12:59;;;;;;;4.80;4.30;;;15.20;1.00;;;;;;5119659;28;20410;-49
2023/06/05 04:15:25;;;;;;;5.93;4.30;;;15.30;1.00;;;;;;5118785;28;20201;-50
2023/06/05 04:17:52;;;;;;;5.63;4.00;;;15.30;1.00;;;;;;5117809;28;20194;-47
2023/06/05 04:20:19;;;;;;;4.27;3.87;;;15.30;1.00;;;;;;5117754;28;20449;-48
2023/06/05 04:22:45;;;;;;;4.27;3.80;;;15.30;1.00;;;;;;5099020;28;20524;-48
2023/06/05 04:25:13;;;;;;;3.83;3.33;;;15.30;1.00;;;;;;5100654;28;20778;-50
2023/06/05 04:27:39;;;;;;;5.57;3.37;;;15.30;1.00;;;;;;5115892;28;20444;-47
2023/06/05 04:30:09;;;;;;;3.63;3.03;;;15.40;1.00;;;;;;5075854;28;20882;-48
2023/06/05 04:32:37;;;;;;;4.77;3.80;;;15.40;1.00;;;;;;5095704;28;20483;-47
2023/06/05 04:35:06;;;;;;;3.53;3.17;;;15.40;1.00;;;;;;5096309;28;20414;-48
2023/06/05 04:37:40;;;;;;;4.40;3.50;;;15.50;1.00;;;;;;5096234;28;20483;-47
2023/06/05 04:40:09;;;;;;;6.93;3.80;;;15.50;1.00;;;;;;5096973;28;20441;-48
2023/06/05 04:42:36;;;;;;;3.87;3.20;;;15.60;1.00;;;;;;5095026;28;20482;-48
2023/06/05 04:45:07;;;;;;;3.57;3.13;;;15.60;1.00;;;;;;5108074;28;20477;-48
2023/06/05 04:47:33;;;;;;;6.13;3.87;;;15.70;1.00;;;;;;5115316;28;20708;-47
2023/06/05 04:50:03;;;;;;;4.97;3.67;;;15.80;1.00;;;;;;5115621;28;20461;-47
2023/06/05 04:52:32;;;;;;;6.60;4.30;;;15.80;1.00;;;;;;5115333;28;20425;-48
2023/06/05 04:54:59;;;;;;;4.83;3.70;;;15.90;1.00;;;;;;5115035;28;20428;-48
2023/06/05 04:57:27;;;;;;;4.40;3.97;;;15.90;1.00;;;;;;5115681;28;20421;-52
2023/06/05 04:59:52;;;;;;;4.90;4.00;;;16.00;1.00;;;;;;5097330;28;20440;-48
2023/06/05 05:02:18;;;;;;;4.40;3.60;;;15.90;1.00;;;;;;5115886;28;20504;-47
2023/06/05 05:04:44;;;;;;;6.70;3.70;;;15.90;1.00;;;;;;5116972;28;20689;-48
2023/06/05 05:07:14;;;;;;;3.67;3.17;;;16.00;1.00;;;;;;5117615;28;20179;-50
2023/06/05 05:09:41;;;;;;;3.53;3.23;;;16.00;1.00;;;;;;5115906;28;20227;-46
2023/06/05 05:12:09;;;;;;;4.20;3.80;;;16.10;1.00;;;;;;5117288;28;20418;-48
2023/06/05 05:14:35;;;;;;;3.87;3.37;;;16.20;1.00;;;;;;5116409;28;20409;-48
2023/06/05 05:17:02;;;;;;;4.70;3.87;;;16.30;1.00;;;;;;5116213;28;20406;-46
2023/06/05 05:19:28;;;;;;;4.57;4.00;;;16.40;1.00;;;;;;5115318;28;20430;-47
2023/06/05 05:21:53;;;;;;;3.93;3.53;;;16.50;1.00;;;;;;5115696;28;20418;-47
2023/06/05 05:24:19;;;;;;;4.30;3.90;;;16.50;1.00;;;;;;5116270;28;20184;-50
2023/06/05 05:26:45;;;;;;;4.87;3.70;;;16.60;1.00;;;;;;5114580;28;20654;-50
2023/06/05 05:29:10;;;;;;;6.10;3.70;;;16.70;1.00;;;;;;5112989;28;20338;-47
2023/06/05 05:31:36;;;;;;;4.53;3.40;;;16.70;1.00;;;;;;5113753;28;20707;-47
2023/06/05 05:34:02;;;;;;;3.77;3.37;;;16.70;1.00;;;;;;5096700;28;20439;-50
2023/06/05 05:36:28;;;;;;;4.20;3.40;;;16.80;1.00;;;;;;5115977;28;20175;-48
2023/06/05 05:38:54;;;;;;;3.80;3.50;;;16.80;1.00;;;;;;5113804;28;20430;-50
2023/06/05 05:41:21;;;;;;;6.77;3.73;;;16.90;1.00;;;;;;5111748;28;20446;-52
2023/06/05 05:43:46;;;;;;;4.17;3.13;;;17.00;1.00;;;;;;5135008;27;20558;-48
2023/06/05 05:46:12;;;;;;;5.33;3.67;;;17.00;1.00;;;;;;5133770;27;20540;-49
2023/06/05 05:48:38;;;;;;;5.80;4.10;;;17.10;1.00;;;;;;5133187;27;20818;-47
2023/06/05 05:51:07;;;;;;;4.57;3.60;;;17.20;1.00;;;;;;5133124;27;20436;-46
2023/06/05 05:53:33;;;;;;;5.80;3.67;;;17.20;1.00;;;;;;5134034;27;20834;-49
2023/06/05 05:55:59;;;;;;;3.90;3.27;;;17.40;1.00;;;;;;5134112;27;20449;-47
2023/06/05 05:58:25;;;;;;;3.90;3.40;;;17.40;1.00;;;;;;5134232;27;20432;-50
2023/06/05 06:00:51;;;;;;;5.80;3.90;;;17.60;1.00;;;;;;5134217;27;20428;-47
2023/06/05 06:03:17;;;;;;;6.00;3.50;;;17.80;1.00;;;;;;5134011;27;20557;-49
2023/06/05 06:05:44;;;;;;;5.70;3.30;;;17.90;1.00;;;;;;5134281;27;20168;-49
2023/06/05 06:08:22;;;;;;;9.10;3.37;;;18.10;1.00;;;;;;5135516;27;20671;-47
2023/06/05 06:10:48;;;;;;;4.00;3.33;;;18.20;1.00;;;;;;5135184;27;20468;-51
2023/06/05 06:13:13;;;;;;;3.80;3.40;;;18.40;1.00;;;;;;5135043;27;20417;-49
2023/06/05 06:15:39;;;;;;;6.40;4.23;;;18.60;1.00;;;;;;5135040;27;20530;-49
2023/06/05 06:18:05;;;;;;;5.70;3.47;;;18.80;1.00;;;;;;5133478;27;20395;-48
2023/06/05 06:20:33;;;;;;;5.00;3.70;;;18.90;1.00;;;;;;5133632;27;20175;-48
2023/06/05 06:22:59;;;;;;;6.43;3.90;;;18.90;1.00;;;;;;5131849;27;20442;-49
2023/06/05 06:25:28;;;;;;;4.97;3.70;;;19.10;1.00;;;;;;5131985;27;20460;-51
2023/06/05 06:27:58;;;;;;;3.63;3.33;;;19.10;1.00;;;;;;5132929;27;20424;-48
2023/06/05 06:30:24;;;;;;;7.10;4.00;;;19.20;1.00;;;;;;5133329;27;20469;-49
2023/06/05 06:32:50;;;;;;;6.30;4.97;;;19.30;1.00;;;;;;5133917;27;20787;-50
2023/06/05 06:35:16;;;;;;;4.67;3.73;;;19.30;1.00;;;;;;5132113;28;20424;-48
2023/06/05 06:37:42;;;;;;;4.57;3.70;;;19.40;1.00;;;;;;5135673;28;20198;-48
2023/06/05 06:40:08;;;;;;;9.07;4.07;;;19.50;1.00;;;;;;5134447;28;20195;-48
2023/06/05 06:42:35;;;;;;;5.27;4.17;;;19.60;1.00;;;;;;5133970;28;20480;-48
2023/06/05 06:45:01;;;;;;;4.87;3.43;;;19.70;1.00;;;;;;5133983;28;20445;-47
2023/06/05 06:47:27;;;;;;;6.40;4.37;;;19.80;1.00;;;;;;5132604;28;20434;-48
2023/06/05 06:49:53;;;;;;;4.67;4.27;;;19.90;1.00;;;;;;5131706;28;20917;-51
2023/06/05 06:52:20;;;;;;;3.90;3.40;;;20.00;1.00;;;;;;5134152;28;20190;-48
2023/06/05 06:54:49;;;;;;;5.07;4.50;;;20.10;1.00;;;;;;5134354;28;20435;-49
2023/06/05 06:57:15;;;;;;;3.40;3.10;;;20.20;1.00;;;;;;5133559;28;20417;-48
2023/06/05 06:59:40;;;;;;;4.43;3.53;;;20.40;1.00;;;;;;5132463;28;20424;-49
2023/06/05 07:02:09;;;;;;;5.00;4.50;;;20.70;1.00;;;;;;5124246;28;20242;-48
2023/06/05 07:04:35;;;;;;;23.80;6.00;;;20.90;1.00;;;;;;5113476;28;20282;-51
2023/06/05 07:07:01;;;;;;;8.50;4.10;;;21.10;1.00;;;;;;5110329;28;20516;-48
2023/06/05 07:09:26;;;;;;;6.43;3.80;;;21.10;1.00;;;;;;5110065;28;20591;-49
2023/06/05 07:11:54;;;;;;;4.33;3.93;;;21.20;1.00;;;;;;5112924;28;20756;-47
2023/06/05 07:14:20;;;;;;;4.77;4.27;;;21.40;1.00;;;;;;5114601;28;20414;-49
2023/06/05 07:16:46;;;;;;;7.37;4.37;;;21.40;1.00;;;;;;5115706;28;20430;-49
2023/06/05 07:19:13;;;;;;;4.30;3.90;;;21.60;1.00;;;;;;5118055;28;20200;-48
2023/06/05 07:21:38;;;;;;;6.27;4.27;;;21.80;1.00;;;;;;5116557;28;20440;-49
2023/06/05 07:24:05;;;;;;;4.57;3.70;;;22.00;1.00;;;;;;5118016;28;20691;-52
2023/06/05 07:26:32;;;;;;;5.03;3.90;;;22.30;1.00;;;;;;5116232;28;20172;-48
2023/06/05 07:28:57;;;;;;;4.80;3.83;;;22.50;1.00;;;;;;5114966;28;20457;-47
2023/06/05 07:31:23;;;;;;;4.07;3.70;;;22.70;1.00;;;;;;5114784;28;20689;-47
2023/06/05 07:33:48;;;;;;;6.70;5.23;;;22.90;1.00;;;;;;5113645;28;20485;-48
2023/06/05 07:36:15;;;;;;;5.20;4.70;;;22.90;1.00;;;;;;5113314;28;20172;-47
2023/06/05 07:38:40;;;;;;;5.03;4.53;;;23.00;1.00;;;;;;5115081;28;20171;-48
2023/06/05 07:41:08;;;;;;;4.70;3.83;;;23.30;1.00;;;;;;5115338;28;20413;-47
2023/06/05 07:43:34;;;;;;;6.30;4.47;;;23.40;1.00;;;;;;5116808;28;20257;-49
2023/06/05 07:45:59;;;;;;;5.77;4.13;;;23.50;1.00;;;;;;5117598;28;20417;-49
2023/06/05 07:48:25;;;;;;;7.83;4.73;;;23.60;1.00;;;;;;5115005;28;20458;-48
2023/06/05 07:50:50;;;;;;;7.03;4.47;;;23.70;1.00;;;;;;5115748;28;20551;-48
2023/06/05 07:53:16;;;;;;;4.40;3.97;;;24.00;1.00;;;;;;5115019;28;20178;-51
2023/06/05 07:55:42;;;;;;;8.60;4.90;;;24.30;1.00;;;;;;5114756;28;20184;-49
2023/06/05 07:58:08;;;;;;;4.47;4.07;;;24.50;1.00;;;;;;5115074;28;20176;-49
2023/06/05 08:00:33;;;;;;;5.70;5.17;;;24.80;1.00;;;;;;5113324;28;20188;-47
2023/06/05 08:03:00;;;;;;;6.37;4.33;;;25.00;1.00;;;;;;5111680;28;20417;-48
2023/06/05 08:05:25;;;;;;;5.90;4.73;;;25.10;1.00;;;;;;5112217;28;20274;-47
2023/06/05 08:07:51;;;;;;;7.00;5.70;;;25.20;1.00;;;;;;5112952;28;20740;-49
2023/06/05 08:10:17;;;;;;;6.50;5.33;;;25.30;1.00;;;;;;5113117;28;20770;-48
2023/06/05 08:12:43;;;;;;;4.87;4.47;;;25.30;1.00;;;;;;5094244;28;20260;-50
2023/06/05 08:15:09;;;;;;;6.23;5.20;;;25.40;1.00;;;;;;5112555;28;20180;-48
2023/06/05 08:17:34;;;;;;;6.23;4.90;;;25.60;1.00;;;;;;5114581;28;20172;-47
2023/06/05 08:20:00;;;;;;;4.90;4.23;;;25.90;1.00;;;;;;5114152;28;20703;-48
2023/06/05 08:22:26;;;;;;;7.17;4.97;;;26.10;1.00;;;;;;5114976;28;20508;-48
2023/06/05 08:24:54;;;;;;;8.80;4.47;;;26.20;1.00;;;;;;5111336;28;20214;-47
2023/06/05 08:27:19;;;;;;;6.40;5.20;;;26.10;1.00;;;;;;5092565;28;20558;-47
2023/06/05 08:29:45;;;;;;;6.50;5.80;;;26.20;1.00;;;;;;5075223;28;20469;-48
2023/06/05 08:32:11;;;;;;;7.20;5.63;;;26.40;1.00;;;;;;5110884;28;20374;-48
2023/06/05 08:34:36;;;;;;;8.23;5.63;;;26.30;1.00;;;;;;5113419;28;20188;-50
2023/06/05 08:37:02;;;;;;;8.33;7.53;;;26.20;1.00;;;;;;5112053;28;20184;-46
2023/06/05 08:39:31;;;;;;;7.13;6.43;;;26.20;1.00;;;;;;5111649;28;20188;-48
2023/06/05 08:42:02;;;;;;;7.00;6.40;;;26.00;1.00;;;;;;5113150;28;20523;-47
2023/06/05 08:44:28;;;;;;;7.27;6.67;;;26.10;1.00;;;;;;5110451;28;20410;-47
2023/06/05 08:47:00;;;;;;;8.20;7.40;;;26.40;1.00;;;;;;5111958;28;20483;-56
2023/06/05 08:49:31;;;;;;;7.00;6.40;;;26.30;1.00;;;;;;5096782;28;20509;-49
2023/06/05 08:52:16;;;;;;;7.57;6.90;;;26.10;1.00;;;;;;5112638;28;20941;-48
2023/06/05 08:54:42;;;;;;;7.50;6.43;;;26.00;1.00;;;;;;5093397;28;20430;-48
2023/06/05 08:57:08;;;;;;;7.83;7.13;;;26.20;1.00;;;;;;5114420;28;20468;-47
2023/06/05 08:59:34;;;;;;;6.50;6.00;;;26.40;1.00;;;;;;5114554;28;20418;-47
2023/06/05 09:02:00;;;;;;;7.93;7.23;;;26.50;1.00;;;;;;5094645;28;20444;-47
2023/06/05 09:04:29;;;;;;;8.33;7.53;;;26.70;1.00;;;;;;5112694;28;20282;-48
2023/06/05 09:06:56;;;;;;;7.87;7.07;;;26.80;1.00;;;;;;5111865;28;20449;-48
2023/06/05 09:09:22;;;;;;;8.43;7.73;;;26.70;1.00;;;;;;5092843;28;20473;-47
2023/06/05 09:11:47;;;;;;;7.97;7.27;;;26.60;1.00;;;;;;5094459;28;20418;-47
2023/06/05 09:14:13;;;;;;;7.93;7.30;;;26.70;1.00;;;;;;5077388;28;20180;-51
2023/06/05 09:16:40;;;;;;;7.40;6.80;;;27.20;1.00;;;;;;5114184;28;20202;-49
2023/06/05 09:19:06;;;;;;;7.50;6.90;;;27.60;1.00;;;;;;5113895;28;20691;-47
2023/06/05 09:21:32;;;;;;;8.37;7.67;;;28.00;1.00;;;;;;5112810;28;20574;-48
2023/06/05 09:24:10;;;;;;;7.63;7.03;;;28.00;1.00;;;;;;5110116;28;20530;-49
2023/06/05 09:26:55;;;;;;;10.23;8.87;;;28.00;1.00;;;;;;5114760;28;20829;-48
2023/06/05 09:29:24;;;;;;;8.17;7.47;;;28.10;1.00;;;;;;5114131;28;20518;-48
2023/06/05 09:31:51;;;;;;;8.57;7.87;;;27.70;1.00;;;;;;5112336;28;20389;-48
2023/06/05 09:34:30;;;;;;;8.07;7.27;;;27.70;1.00;;;;;;5095869;28;20436;-48
2023/06/05 09:36:57;;;;;;;7.43;6.83;;;28.10;1.00;;;;;;5114933;28;20421;-48
2023/06/05 09:39:27;;;;;;;7.77;6.90;;;28.50;1.00;;;;;;5112215;28;20429;-48
2023/06/05 09:41:53;;;;;;;7.40;6.73;;;28.80;1.00;;;;;;5095081;28;20455;-51
2023/06/05 09:44:19;;;;;;;7.80;7.20;;;29.20;1.00;;;;;;5093690;28;20447;-48
2023/06/05 09:46:57;;;;;;;7.17;6.57;;;29.20;1.00;;;;;;5112399;28;20429;-51
2023/06/05 09:49:45;;;;;;;7.67;7.07;;;29.50;1.00;;;;;;5113006;28;20977;-51
2023/06/05 09:52:12;;;;;;;7.33;6.73;;;29.40;1.00;;;;;;5110505;28;20425;-48
2023/06/05 09:54:41;;;;;;;8.00;7.20;;;29.10;1.00;;;;;;5114638;28;20433;-49
2023/06/05 09:57:09;;;;;;;7.27;6.67;;;29.00;1.00;;;;;;5114415;28;20421;-48
2023/06/05 09:59:45;;;;;;;7.90;6.60;;;28.90;1.00;;;;;;5113934;28;20417;-48
2023/06/05 10:02:16;;;;;;;8.00;7.27;;;28.60;1.00;;;;;;5112494;28;20660;-49
2023/06/05 10:04:59;;;;;;;7.60;6.97;;;28.20;1.00;;;;;;5113945;28;20437;-48
2023/06/05 10:07:25;;;;;;;7.30;6.77;;;27.80;1.00;;;;;;5112231;28;20424;-48
2023/06/05 10:09:50;;;;;;;8.23;7.13;;;27.50;1.00;;;;;;5113245;28;20469;-51
2023/06/05 10:12:16;;;;;;;9.27;7.33;;;27.90;1.00;;;;;;5112050;28;20195;-50
2023/06/05 10:14:43;;;;;;;7.50;6.80;;;28.60;1.00;;;;;;5112176;28;20211;-48
2023/06/05 10:17:13;;;;;;;7.60;7.00;;;29.40;1.00;;;;;;5113307;28;20448;-49
2023/06/05 10:19:42;;;;;;;7.73;7.07;;;30.20;1.00;;;;;;5111902;28;20434;-51
2023/06/05 10:22:10;;;;;;;7.20;6.60;;;30.90;1.00;;;;;;5112589;28;20520;-50
2023/06/05 10:24:41;;;;;;;10.03;7.60;;;31.00;1.00;;;;;;5113500;28;20447;-50
2023/06/05 10:27:24;;;;;;;8.90;7.03;;;30.80;1.00;;;;;;5114939;27;20437;-47
2023/06/05 10:30:11;;;;;;;7.03;6.33;;;31.00;1.00;;;;;;5094263;28;20594;-48
2023/06/05 10:32:51;;;;;;;7.03;6.33;;;31.40;1.00;;;;;;5109337;28;20414;-49
2023/06/05 10:35:48;;;;;;;7.87;7.27;;;31.90;1.00;;;;;;5111259;28;20767;-49
2023/06/05 10:38:20;;;;;;;7.97;7.30;;;32.20;1.00;;;;;;5112739;28;20409;-52
2023/06/05 10:40:50;;;;;;;7.13;6.50;;;32.50;1.00;;;;;;5111863;28;20469;-48
2023/06/05 10:43:35;;;;;;;8.20;6.77;;;32.10;1.00;;;;;;5111057;28;20478;-51
2023/06/05 10:46:22;;;;;;;6.77;5.90;;;31.50;1.00;;;;;;5109967;28;20422;-48
2023/06/05 10:49:14;;;;;;;9.27;6.00;;;31.00;1.00;;;;;;5112044;28;20487;-48
2023/06/05 10:51:42;;;;;;;7.03;6.50;;;31.10;1.00;;;;;;5115737;28;20875;-48
2023/06/05 10:54:15;;;;;;;7.37;6.77;;;31.00;1.00;;;;;;5118623;28;20833;-47
2023/06/05 10:57:01;;;;;;;6.77;6.27;;;30.70;1.00;;;;;;5117455;28;20392;-49
2023/06/05 10:59:31;;;;;;;7.80;7.10;;;30.10;1.00;;;;;;5118191;28;20416;-48
2023/06/05 11:02:14;;;;;;;7.20;6.70;;;29.70;1.00;;;;;;5118202;28;20546;-50
2023/06/05 11:04:46;;;;;;;8.30;7.43;;;29.20;1.00;;;;;;5118274;28;20817;-47
2023/06/05 11:07:20;;;;;;;7.43;6.83;;;29.10;1.00;;;;;;5117873;28;20396;-49
2023/06/05 11:10:05;;;;;;;7.83;6.93;;;29.30;1.00;;;;;;5116234;28;20456;-49
2023/06/05 11:12:42;;;;;;;7.03;6.43;;;29.80;1.00;;;;;;5115028;28;20554;-50
2023/06/05 11:15:11;;;;;;;7.60;6.90;;;30.30;1.00;;;;;;5114602;28;20425;-52
2023/06/05 11:17:39;;;;;;;6.90;6.30;;;30.90;1.00;;;;;;5113731;28;20833;-48
2023/06/05 11:20:10;;;;;;;6.80;6.20;;;30.90;1.00;;;;;;5111686;28;20405;-48
2023/06/05 11:22:54;;;;;;;8.10;7.50;;;31.00;1.00;;;;;;5113313;28;20395;-52
2023/06/05 11:25:30;;;;;;;7.63;6.93;;;31.10;1.00;;;;;;5112934;28;20443;-48
2023/06/05 11:28:01;;;;;;;7.30;6.17;;;31.50;1.00;;;;;;5116168;28;20816;-48
2023/06/05 11:30:42;;;;;;;7.20;5.83;;;32.10;1.00;;;;;;5114971;28;20925;-48
2023/06/05 11:33:15;;;;;;;8.33;6.57;;;32.50;1.00;;;;;;5116483;28;20403;-48
2023/06/05 11:35:44;;;;;;;7.23;6.63;;;32.80;1.00;;;;;;5116426;28;20401;-52
2023/06/05 11:38:22;;;;;;;6.70;6.20;;;32.40;1.00;;;;;;5115175;28;20401;-51
2023/06/05 11:40:48;;;;;;;8.73;6.60;;;32.30;1.00;;;;;;5098630;28;20464;-48
2023/06/05 11:43:15;;;;;;;6.80;6.20;;;32.60;1.00;;;;;;5115661;28;20744;-47
2023/06/05 11:45:49;;;;;;;6.67;5.97;;;32.70;1.00;;;;;;5114864;28;20465;-50
2023/06/05 11:48:15;;;;;;;7.47;6.20;;;33.10;1.00;;;;;;5097752;28;20617;-50
2023/06/05 11:50:54;;;;;;;6.17;5.47;;;33.50;1.00;;;;;;5117105;28;20596;-48
2023/06/05 11:53:20;;;;;;;8.83;6.27;;;33.10;1.00;;;;;;5117536;28;20446;-51
2023/06/05 11:58:25;;;;;;;6.63;6.03;;;31.90;1.00;;;;;;5116192;28;20429;-48
2023/06/05 12:00:52;;;;;;;6.73;6.13;;;31.50;1.00;;;;;;5116979;28;20723;-48
2023/06/05 12:03:21;;;;;;;6.20;5.70;;;30.90;1.00;;;;;;5116188;28;20824;-51
2023/06/05 12:05:48;;;;;;;6.77;6.13;;;30.40;1.00;;;;;;5115336;28;20429;-49
2023/06/05 12:08:28;;;;;;;6.90;6.30;;;30.40;1.00;;;;;;5114620;28;20412;-49
2023/06/05 12:10:56;;;;;;;7.13;6.50;;;31.20;1.00;;;;;;5114419;28;20701;-48
2023/06/05 12:13:22;;;;;;;6.97;6.30;;;32.10;1.00;;;;;;5114137;28;20421;-50
2023/06/05 12:16:00;;;;;;;7.13;6.47;;;32.80;1.00;;;;;;5114046;28;20425;-48
2023/06/05 12:18:35;;;;;;;6.70;6.13;;;33.20;1.00;;;;;;5115558;28;20833;-49
2023/06/05 12:21:01;;;;;;;5.60;5.20;;;33.40;1.00;;;;;;5114628;28;20467;-52
2023/06/05 12:23:31;;;;;;;7.60;6.07;;;33.90;1.00;;;;;;5113031;28;20484;-51
2023/06/05 12:26:01;;;;;;;6.53;5.93;;;34.30;1.00;;;;;;5114471;28;20451;-51
2023/06/05 12:28:27;;;;;;;6.03;5.43;;;34.70;1.00;;;;;;5114667;28;20400;-50
2023/06/05 12:30:53;;;;;;;5.57;5.07;;;34.70;1.00;;;;;;5111134;28;20448;-49
2023/06/05 12:33:19;;;;;;;6.10;5.50;;;34.60;1.00;;;;;;5115728;28;20599;-51
2023/06/05 12:35:46;;;;;;;6.30;5.80;;;34.60;1.00;;;;;;5121008;27;20412;-47
2023/06/05 12:38:13;;;;;;;8.87;6.63;;;34.30;1.00;;;;;;5115532;27;20385;-48
2023/06/05 12:40:39;;;;;;;6.30;5.80;;;33.70;1.00;;;;;;5116457;27;20408;-48
2023/06/05 12:43:17;;;;;;;6.40;5.73;;;33.10;1.00;;;;;;5095579;28;20882;-48
2023/06/05 12:45:43;;;;;;;5.93;5.43;;;33.00;1.00;;;;;;5129170;27;20459;-51
2023/06/05 12:48:10;;;;;;;6.20;5.70;;;32.70;1.00;;;;;;5131612;27;20436;-51
2023/06/05 12:50:35;;;;;;;6.30;5.80;;;32.30;1.00;;;;;;5131014;27;20461;-47
2023/06/05 12:53:01;;;;;;;5.87;5.30;;;32.50;1.00;;;;;;5131720;27;20799;-50
2023/06/05 12:55:27;;;;;;;6.00;5.40;;;33.00;1.00;;;;;;5116308;28;20191;-49
2023/06/05 12:57:53;;;;;;;5.83;5.43;;;33.60;1.00;;;;;;5120547;27;20408;-53
2023/06/05 13:00:19;;;;;;;6.00;5.60;;;34.20;1.00;;;;;;5119947;27;20553;-53
2023/06/05 13:02:46;;;;;;;6.33;5.83;;;34.60;1.00;;;;;;5116947;27;20187;-49